Arundel, Maine
Current Conditions -  °F | °C
As of 11:35 PM on Wednesday 26 Nov 2014 (Local Time) from KSFM Reporting Station
Overcast Overcast  
Wind Chill: 17°   Ceiling: 800
Heat Index: 30°   Visibility: 1.5mi
Dew Point: 25°   Wind: 22mph
Humidity: 80%   Direction: 360°N
Pressure: 29.72"   Gusts: 29mph
Location:  43.4079°N, 70.4735°W
Report Text: KSFM 270435Z AUTO 36019G25KT 1 1/2SM OVC008 M01/M04 A2972 RMK AO1 P0001
Loading
Personal Weather Stations






























Interactive Weather Map New forecast layout! Learn more

10-Day Weather Forecast

Advertisements
Track Severe Weather on mobile